Pagina principale
METAR-TAF:

METAR-TAF

Aeroporti :

Air Force Base Waterkloof

Waterkloof, Sudafrica

latitudine: 25-50S, longitudine: 028-13E, altezza: 1498 m

Osservazione

Il bollettino è stato emesso 1 ora e 4 minuti fa, alle 09:00 UTC
Vento 1 kt da ovest
Temperature 18°C
Umidità 45%
Pressione 1031 hPa

METAR: FAWK 070900Z AUTO 26001KT //// // ////// 18/06 Q1031

Ora: 12:04 (10:04 UTC)

Previsione

Il bollettino è stato emesso 2 ore e 59 minuti fa, alle 07:05 UTC
Previsione valida dal 07 alle 07 UTC al 07 alle 18 UTC
Vento 3 kt da direzioni variabili
Visibilità 10 km o più
nessuna nube inferiore a 1500 m e nessun cumulonembo

TAF: FAWK 070705Z 0707/0718 VRB03KT CAVOK TX19/0713Z TN11/0718Z

Osservazioni e previsioni meteorologiche di più di 4000 aeroporti (messaggi METAR e TAF).

Le stazioni disponibili sono rappresentate dai dischi gialli e rossi sulla carta.

Puntare il mouse per vedere il nome della stazione.

Clicca sopra per visualizzare le osservazioni e previsioni meteorologiche.

Per cambiare la mappa : fare clic sui pulsanti verdi con una croce nera per ingrandire, il pulsante verde con un trattino per diminuire, o sulla freccia verde per le mappe adiacenti.


METAR-TAF: